sensor_id;sensor_type;location;lat;lon;timestamp;temperature;humidity
32201;DHT22;18701;45.588;5.288;2023-05-29T00:00:26;18.50;99.90
32201;DHT22;18701;45.588;5.288;2023-05-29T00:02:52;18.30;99.90
32201;DHT22;18701;45.588;5.288;2023-05-29T00:05:18;18.30;99.90
32201;DHT22;18701;45.588;5.288;2023-05-29T00:07:44;18.30;99.90
32201;DHT22;18701;45.588;5.288;2023-05-29T00:10:10;18.60;99.90
32201;DHT22;18701;45.588;5.288;2023-05-29T00:12:38;18.60;99.90
32201;DHT22;18701;45.588;5.288;2023-05-29T00:15:04;18.50;99.90
32201;DHT22;18701;45.588;5.288;2023-05-29T00:17:31;18.50;99.90
32201;DHT22;18701;45.588;5.288;2023-05-29T00:20:00;18.30;99.90
32201;DHT22;18701;45.588;5.288;2023-05-29T00:22:27;18.50;99.90
32201;DHT22;18701;45.588;5.288;2023-05-29T00:24:52;18.40;99.90
32201;DHT22;18701;45.588;5.288;2023-05-29T00:27:18;18.30;99.90
32201;DHT22;18701;45.588;5.288;2023-05-29T00:29:44;18.50;99.90
32201;DHT22;18701;45.588;5.288;2023-05-29T00:32:10;18.40;99.90
32201;DHT22;18701;45.588;5.288;2023-05-29T00:34:36;18.40;99.90
32201;DHT22;18701;45.588;5.288;2023-05-29T00:37:01;18.30;99.90
32201;DHT22;18701;45.588;5.288;2023-05-29T00:39:27;18.20;99.90
32201;DHT22;18701;45.588;5.288;2023-05-29T00:41:53;18.30;99.90
32201;DHT22;18701;45.588;5.288;2023-05-29T00:44:20;18.20;99.90
32201;DHT22;18701;45.588;5.288;2023-05-29T00:46:46;18.30;99.90
32201;DHT22;18701;45.588;5.288;2023-05-29T00:49:13;18.50;99.90
32201;DHT22;18701;45.588;5.288;2023-05-29T00:51:40;18.40;99.90
32201;DHT22;18701;45.588;5.288;2023-05-29T00:54:07;18.40;99.90
32201;DHT22;18701;45.588;5.288;2023-05-29T00:56:38;18.40;99.90
32201;DHT22;18701;45.588;5.288;2023-05-29T00:59:04;18.70;99.90
32201;DHT22;18701;45.588;5.288;2023-05-29T01:01:30;18.80;99.90
32201;DHT22;18701;45.588;5.288;2023-05-29T01:03:59;18.70;99.90
32201;DHT22;18701;45.588;5.288;2023-05-29T01:06:26;18.50;99.90
32201;DHT22;18701;45.588;5.288;2023-05-29T01:08:52;18.60;99.90
32201;DHT22;18701;45.588;5.288;2023-05-29T01:14:06;18.40;99.90
32201;DHT22;18701;45.588;5.288;2023-05-29T01:16:40;18.50;99.90
32201;DHT22;18701;45.588;5.288;2023-05-29T01:22:40;18.80;99.90
32201;DHT22;18701;45.588;5.288;2023-05-29T01:25:19;18.80;99.90
32201;DHT22;18701;45.588;5.288;2023-05-29T01:27:47;18.80;99.90
32201;DHT22;18701;45.588;5.288;2023-05-29T01:30:14;18.70;99.90
32201;DHT22;18701;45.588;5.288;2023-05-29T01:32:41;18.50;99.90
32201;DHT22;18701;45.588;5.288;2023-05-29T01:35:08;18.40;99.90
32201;DHT22;18701;45.588;5.288;2023-05-29T01:37:34;18.40;99.90
32201;DHT22;18701;45.588;5.288;2023-05-29T01:40:00;18.60;99.90
32201;DHT22;18701;45.588;5.288;2023-05-29T01:42:27;18.30;99.90
32201;DHT22;18701;45.588;5.288;2023-05-29T01:44:55;18.30;99.90
32201;DHT22;18701;45.588;5.288;2023-05-29T01:47:21;18.30;99.90
32201;DHT22;18701;45.588;5.288;2023-05-29T01:49:50;18.20;99.90
32201;DHT22;18701;45.588;5.288;2023-05-29T01:52:16;18.20;99.90
32201;DHT22;18701;45.588;5.288;2023-05-29T01:54:43;18.10;99.90
32201;DHT22;18701;45.588;5.288;2023-05-29T01:57:09;18.30;99.90
32201;DHT22;18701;45.588;5.288;2023-05-29T01:59:36;18.30;99.90
32201;DHT22;18701;45.588;5.288;2023-05-29T02:02:09;18.20;99.90
32201;DHT22;18701;45.588;5.288;2023-05-29T02:04:35;18.30;99.90
32201;DHT22;18701;45.588;5.288;2023-05-29T02:07:01;18.30;99.90
32201;DHT22;18701;45.588;5.288;2023-05-29T02:09:27;18.10;99.90
32201;DHT22;18701;45.588;5.288;2023-05-29T02:11:52;18.10;99.90
32201;DHT22;18701;45.588;5.288;2023-05-29T02:14:18;18.20;99.90
32201;DHT22;18701;45.588;5.288;2023-05-29T02:16:44;18.10;99.90
32201;DHT22;18701;45.588;5.288;2023-05-29T02:19:10;18.20;99.90
32201;DHT22;18701;45.588;5.288;2023-05-29T02:21:39;18.10;99.90
32201;DHT22;18701;45.588;5.288;2023-05-29T02:24:06;17.90;99.90
32201;DHT22;18701;45.588;5.288;2023-05-29T02:26:32;17.90;99.90
32201;DHT22;18701;45.588;5.288;2023-05-29T02:28:58;17.90;99.90
32201;DHT22;18701;45.588;5.288;2023-05-29T02:31:23;17.90;99.90
32201;DHT22;18701;45.588;5.288;2023-05-29T02:33:49;17.90;99.90
32201;DHT22;18701;45.588;5.288;2023-05-29T02:36:15;17.80;99.90
32201;DHT22;18701;45.588;5.288;2023-05-29T02:38:41;17.70;99.90
32201;DHT22;18701;45.588;5.288;2023-05-29T02:41:07;17.80;99.90
32201;DHT22;18701;45.588;5.288;2023-05-29T02:43:32;18.00;99.90
32201;DHT22;18701;45.588;5.288;2023-05-29T02:45:58;17.80;99.90
32201;DHT22;18701;45.588;5.288;2023-05-29T02:48:24;17.70;99.90
32201;DHT22;18701;45.588;5.288;2023-05-29T02:50:51;17.70;99.90
32201;DHT22;18701;45.588;5.288;2023-05-29T02:53:16;17.70;99.90
32201;DHT22;18701;45.588;5.288;2023-05-29T02:55:42;17.60;99.90
32201;DHT22;18701;45.588;5.288;2023-05-29T02:58:08;17.70;99.90
32201;DHT22;18701;45.588;5.288;2023-05-29T03:00:33;17.60;99.90
32201;DHT22;18701;45.588;5.288;2023-05-29T03:03:00;17.50;99.90
32201;DHT22;18701;45.588;5.288;2023-05-29T03:05:26;17.50;99.90
32201;DHT22;18701;45.588;5.288;2023-05-29T03:07:51;17.50;99.90
32201;DHT22;18701;45.588;5.288;2023-05-29T03:10:17;17.60;99.90
32201;DHT22;18701;45.588;5.288;2023-05-29T03:12:43;17.50;99.90
32201;DHT22;18701;45.588;5.288;2023-05-29T03:15:09;17.30;99.90
32201;DHT22;18701;45.588;5.288;2023-05-29T03:17:35;17.30;99.90
32201;DHT22;18701;45.588;5.288;2023-05-29T03:20:02;17.20;99.90
32201;DHT22;18701;45.588;5.288;2023-05-29T03:22:31;17.20;99.90
32201;DHT22;18701;45.588;5.288;2023-05-29T03:24:57;17.20;99.90
32201;DHT22;18701;45.588;5.288;2023-05-29T03:27:23;17.10;99.90
32201;DHT22;18701;45.588;5.288;2023-05-29T03:29:48;17.20;99.90
32201;DHT22;18701;45.588;5.288;2023-05-29T03:32:14;17.10;99.90
32201;DHT22;18701;45.588;5.288;2023-05-29T03:34:40;17.10;99.90
32201;DHT22;18701;45.588;5.288;2023-05-29T03:37:05;17.10;99.90
32201;DHT22;18701;45.588;5.288;2023-05-29T03:39:31;17.00;99.90
32201;DHT22;18701;45.588;5.288;2023-05-29T03:41:57;17.00;99.90
32201;DHT22;18701;45.588;5.288;2023-05-29T03:44:22;16.90;99.90
32201;DHT22;18701;45.588;5.288;2023-05-29T03:46:49;17.00;99.90
32201;DHT22;18701;45.588;5.288;2023-05-29T03:49:15;17.00;99.90
32201;DHT22;18701;45.588;5.288;2023-05-29T03:51:41;17.00;99.90
32201;DHT22;18701;45.588;5.288;2023-05-29T03:54:06;17.10;99.90
32201;DHT22;18701;45.588;5.288;2023-05-29T03:56:32;16.90;99.90
32201;DHT22;18701;45.588;5.288;2023-05-29T03:58:57;16.90;99.90
32201;DHT22;18701;45.588;5.288;2023-05-29T04:01:23;16.90;99.90
32201;DHT22;18701;45.588;5.288;2023-05-29T04:03:49;16.70;99.90
32201;DHT22;18701;45.588;5.288;2023-05-29T04:06:15;16.60;99.90
32201;DHT22;18701;45.588;5.288;2023-05-29T04:08:41;16.50;99.90
32201;DHT22;18701;45.588;5.288;2023-05-29T04:11:07;16.60;99.90
32201;DHT22;18701;45.588;5.288;2023-05-29T04:13:32;16.70;99.90
32201;DHT22;18701;45.588;5.288;2023-05-29T04:15:58;16.60;99.90
32201;DHT22;18701;45.588;5.288;2023-05-29T04:18:24;16.60;99.90
32201;DHT22;18701;45.588;5.288;2023-05-29T04:20:51;16.70;99.90
32201;DHT22;18701;45.588;5.288;2023-05-29T04:23:16;16.80;99.90
32201;DHT22;18701;45.588;5.288;2023-05-29T04:25:42;16.70;99.90
32201;DHT22;18701;45.588;5.288;2023-05-29T04:28:09;16.60;99.90
32201;DHT22;18701;45.588;5.288;2023-05-29T04:30:36;16.70;99.90
32201;DHT22;18701;45.588;5.288;2023-05-29T04:33:01;17.00;99.90
32201;DHT22;18701;45.588;5.288;2023-05-29T04:35:28;17.00;99.90
32201;DHT22;18701;45.588;5.288;2023-05-29T04:37:54;16.90;99.90
32201;DHT22;18701;45.588;5.288;2023-05-29T04:40:22;16.90;99.90
32201;DHT22;18701;45.588;5.288;2023-05-29T04:42:47;17.00;99.90
32201;DHT22;18701;45.588;5.288;2023-05-29T04:45:13;16.90;99.90
32201;DHT22;18701;45.588;5.288;2023-05-29T04:47:39;16.80;99.90
32201;DHT22;18701;45.588;5.288;2023-05-29T04:50:10;17.10;99.90
32201;DHT22;18701;45.588;5.288;2023-05-29T04:52:37;17.10;99.90
32201;DHT22;18701;45.588;5.288;2023-05-29T04:55:03;17.00;99.90
32201;DHT22;18701;45.588;5.288;2023-05-29T04:57:28;17.00;99.90
32201;DHT22;18701;45.588;5.288;2023-05-29T04:59:54;16.90;99.90
32201;DHT22;18701;45.588;5.288;2023-05-29T05:02:20;16.70;99.90
32201;DHT22;18701;45.588;5.288;2023-05-29T05:04:45;16.80;99.90
32201;DHT22;18701;45.588;5.288;2023-05-29T05:07:11;16.70;99.90
32201;DHT22;18701;45.588;5.288;2023-05-29T05:09:37;16.80;99.90
32201;DHT22;18701;45.588;5.288;2023-05-29T05:12:03;16.70;99.90
32201;DHT22;18701;45.588;5.288;2023-05-29T05:14:29;16.90;99.90
32201;DHT22;18701;45.588;5.288;2023-05-29T05:16:54;17.00;99.90
32201;DHT22;18701;45.588;5.288;2023-05-29T05:19:20;16.90;99.90
32201;DHT22;18701;45.588;5.288;2023-05-29T05:21:46;17.00;99.90
32201;DHT22;18701;45.588;5.288;2023-05-29T05:24:11;17.00;99.90
32201;DHT22;18701;45.588;5.288;2023-05-29T05:26:37;17.10;99.90
32201;DHT22;18701;45.588;5.288;2023-05-29T05:29:03;17.10;99.90
32201;DHT22;18701;45.588;5.288;2023-05-29T05:31:28;17.10;99.90
32201;DHT22;18701;45.588;5.288;2023-05-29T05:33:54;17.20;99.90
32201;DHT22;18701;45.588;5.288;2023-05-29T05:36:19;17.20;99.90
32201;DHT22;18701;45.588;5.288;2023-05-29T05:38:45;17.30;99.90
32201;DHT22;18701;45.588;5.288;2023-05-29T05:41:11;17.20;99.90
32201;DHT22;18701;45.588;5.288;2023-05-29T05:43:36;17.40;99.90
32201;DHT22;18701;45.588;5.288;2023-05-29T05:46:02;17.50;99.90
32201;DHT22;18701;45.588;5.288;2023-05-29T05:48:28;17.40;99.90
32201;DHT22;18701;45.588;5.288;2023-05-29T05:50:53;17.60;99.90
32201;DHT22;18701;45.588;5.288;2023-05-29T05:53:19;17.70;99.90
32201;DHT22;18701;45.588;5.288;2023-05-29T05:55:46;17.60;99.90
32201;DHT22;18701;45.588;5.288;2023-05-29T05:58:12;17.60;99.90
32201;DHT22;18701;45.588;5.288;2023-05-29T06:00:39;17.60;99.90
32201;DHT22;18701;45.588;5.288;2023-05-29T06:03:05;17.70;99.90
32201;DHT22;18701;45.588;5.288;2023-05-29T06:05:30;17.70;99.90
32201;DHT22;18701;45.588;5.288;2023-05-29T06:07:56;17.80;99.90
32201;DHT22;18701;45.588;5.288;2023-05-29T06:10:22;17.80;99.90
32201;DHT22;18701;45.588;5.288;2023-05-29T06:12:47;17.90;99.90
32201;DHT22;18701;45.588;5.288;2023-05-29T06:15:14;18.10;99.90
32201;DHT22;18701;45.588;5.288;2023-05-29T06:17:39;18.10;99.90
32201;DHT22;18701;45.588;5.288;2023-05-29T06:20:06;18.20;99.90
32201;DHT22;18701;45.588;5.288;2023-05-29T06:22:36;18.20;99.90
32201;DHT22;18701;45.588;5.288;2023-05-29T06:25:02;18.30;99.90
32201;DHT22;18701;45.588;5.288;2023-05-29T06:27:27;18.30;99.90
32201;DHT22;18701;45.588;5.288;2023-05-29T06:29:53;18.40;99.90
32201;DHT22;18701;45.588;5.288;2023-05-29T06:32:19;18.50;99.90
32201;DHT22;18701;45.588;5.288;2023-05-29T06:34:44;18.60;99.90
32201;DHT22;18701;45.588;5.288;2023-05-29T06:37:10;18.70;99.90
32201;DHT22;18701;45.588;5.288;2023-05-29T06:39:37;18.70;99.90
32201;DHT22;18701;45.588;5.288;2023-05-29T06:42:07;18.80;99.90
32201;DHT22;18701;45.588;5.288;2023-05-29T06:44:33;18.90;99.90
32201;DHT22;18701;45.588;5.288;2023-05-29T06:46:59;19.00;99.90
32201;DHT22;18701;45.588;5.288;2023-05-29T06:49:24;19.10;99.90
32201;DHT22;18701;45.588;5.288;2023-05-29T06:51:50;19.10;99.90
32201;DHT22;18701;45.588;5.288;2023-05-29T06:54:16;19.10;99.90
32201;DHT22;18701;45.588;5.288;2023-05-29T06:56:42;19.20;99.90
32201;DHT22;18701;45.588;5.288;2023-05-29T06:59:07;19.30;99.90
32201;DHT22;18701;45.588;5.288;2023-05-29T07:01:33;19.30;99.90
32201;DHT22;18701;45.588;5.288;2023-05-29T07:03:59;19.20;99.90
32201;DHT22;18701;45.588;5.288;2023-05-29T07:06:24;19.40;99.90
32201;DHT22;18701;45.588;5.288;2023-05-29T07:08:50;19.40;99.90
32201;DHT22;18701;45.588;5.288;2023-05-29T07:11:16;19.50;99.90
32201;DHT22;18701;45.588;5.288;2023-05-29T07:13:41;19.40;99.90
32201;DHT22;18701;45.588;5.288;2023-05-29T07:16:07;19.50;99.90
32201;DHT22;18701;45.588;5.288;2023-05-29T07:18:32;19.60;99.90
32201;DHT22;18701;45.588;5.288;2023-05-29T07:21:00;19.70;99.90
32201;DHT22;18701;45.588;5.288;2023-05-29T07:23:26;19.60;99.90
32201;DHT22;18701;45.588;5.288;2023-05-29T07:25:52;19.70;99.90
32201;DHT22;18701;45.588;5.288;2023-05-29T07:28:17;19.70;99.90
32201;DHT22;18701;45.588;5.288;2023-05-29T07:30:43;19.80;99.90
32201;DHT22;18701;45.588;5.288;2023-05-29T07:33:08;19.50;99.90
32201;DHT22;18701;45.588;5.288;2023-05-29T07:35:34;19.70;99.90
32201;DHT22;18701;45.588;5.288;2023-05-29T07:38:00;19.90;99.90
32201;DHT22;18701;45.588;5.288;2023-05-29T07:40:26;19.80;99.90
32201;DHT22;18701;45.588;5.288;2023-05-29T07:42:52;19.80;99.90
32201;DHT22;18701;45.588;5.288;2023-05-29T07:45:17;19.90;99.90
32201;DHT22;18701;45.588;5.288;2023-05-29T07:47:43;20.00;99.90
32201;DHT22;18701;45.588;5.288;2023-05-29T07:50:09;19.90;99.90
32201;DHT22;18701;45.588;5.288;2023-05-29T07:52:35;19.90;99.90
32201;DHT22;18701;45.588;5.288;2023-05-29T07:55:01;20.00;99.90
32201;DHT22;18701;45.588;5.288;2023-05-29T07:57:27;20.20;99.90
32201;DHT22;18701;45.588;5.288;2023-05-29T07:59:53;20.50;99.90
32201;DHT22;18701;45.588;5.288;2023-05-29T08:02:19;20.60;99.90
32201;DHT22;18701;45.588;5.288;2023-05-29T08:04:45;20.50;99.90
32201;DHT22;18701;45.588;5.288;2023-05-29T08:07:11;20.50;99.90
32201;DHT22;18701;45.588;5.288;2023-05-29T08:09:37;20.40;99.90
32201;DHT22;18701;45.588;5.288;2023-05-29T08:12:03;20.50;99.90
32201;DHT22;18701;45.588;5.288;2023-05-29T08:14:28;20.50;99.90
32201;DHT22;18701;45.588;5.288;2023-05-29T08:16:54;20.60;99.90
32201;DHT22;18701;45.588;5.288;2023-05-29T08:19:20;20.70;99.90
32201;DHT22;18701;45.588;5.288;2023-05-29T08:21:45;20.80;99.90
32201;DHT22;18701;45.588;5.288;2023-05-29T08:24:11;20.80;99.90
32201;DHT22;18701;45.588;5.288;2023-05-29T08:26:37;20.90;99.90
32201;DHT22;18701;45.588;5.288;2023-05-29T08:29:03;21.00;99.90
32201;DHT22;18701;45.588;5.288;2023-05-29T08:31:29;21.10;99.90
32201;DHT22;18701;45.588;5.288;2023-05-29T08:33:55;21.30;99.90
32201;DHT22;18701;45.588;5.288;2023-05-29T08:36:21;21.40;99.90
32201;DHT22;18701;45.588;5.288;2023-05-29T08:38:48;21.50;99.90
32201;DHT22;18701;45.588;5.288;2023-05-29T08:44:12;22.10;99.90
32201;DHT22;18701;45.588;5.288;2023-05-29T08:46:39;22.10;99.90
32201;DHT22;18701;45.588;5.288;2023-05-29T08:49:07;22.20;99.90
32201;DHT22;18701;45.588;5.288;2023-05-29T08:51:37;22.30;99.90
32201;DHT22;18701;45.588;5.288;2023-05-29T08:54:04;22.20;99.90
32201;DHT22;18701;45.588;5.288;2023-05-29T08:56:31;22.40;99.90
32201;DHT22;18701;45.588;5.288;2023-05-29T08:58:58;22.40;99.90
32201;DHT22;18701;45.588;5.288;2023-05-29T09:01:25;22.30;99.90
32201;DHT22;18701;45.588;5.288;2023-05-29T09:03:50;22.70;99.90
32201;DHT22;18701;45.588;5.288;2023-05-29T09:06:16;22.60;99.90
32201;DHT22;18701;45.588;5.288;2023-05-29T09:08:43;22.60;99.90
32201;DHT22;18701;45.588;5.288;2023-05-29T09:11:09;22.80;99.90
32201;DHT22;18701;45.588;5.288;2023-05-29T09:13:35;22.90;99.90
32201;DHT22;18701;45.588;5.288;2023-05-29T09:16:01;23.10;99.90
32201;DHT22;18701;45.588;5.288;2023-05-29T09:18:30;23.10;99.90
32201;DHT22;18701;45.588;5.288;2023-05-29T09:20:56;23.20;99.90
32201;DHT22;18701;45.588;5.288;2023-05-29T09:23:22;23.10;99.90
32201;DHT22;18701;45.588;5.288;2023-05-29T09:25:52;23.10;99.90
32201;DHT22;18701;45.588;5.288;2023-05-29T09:28:20;23.30;99.90
32201;DHT22;18701;45.588;5.288;2023-05-29T09:30:47;23.30;99.90
32201;DHT22;18701;45.588;5.288;2023-05-29T09:33:14;23.60;99.90
32201;DHT22;18701;45.588;5.288;2023-05-29T09:35:42;23.80;99.90
32201;DHT22;18701;45.588;5.288;2023-05-29T09:38:10;23.40;99.90
32201;DHT22;18701;45.588;5.288;2023-05-29T09:40:38;23.40;99.90
32201;DHT22;18701;45.588;5.288;2023-05-29T09:43:10;23.60;99.90
32201;DHT22;18701;45.588;5.288;2023-05-29T09:45:38;23.40;99.90
32201;DHT22;18701;45.588;5.288;2023-05-29T09:48:05;23.60;99.90
32201;DHT22;18701;45.588;5.288;2023-05-29T09:50:30;23.60;99.90
32201;DHT22;18701;45.588;5.288;2023-05-29T09:52:59;23.80;99.90
32201;DHT22;18701;45.588;5.288;2023-05-29T09:55:27;24.10;99.90
32201;DHT22;18701;45.588;5.288;2023-05-29T09:57:54;24.10;99.90
32201;DHT22;18701;45.588;5.288;2023-05-29T10:00:20;24.10;99.90
32201;DHT22;18701;45.588;5.288;2023-05-29T10:02:48;24.40;99.90
32201;DHT22;18701;45.588;5.288;2023-05-29T10:05:14;24.30;99.90
32201;DHT22;18701;45.588;5.288;2023-05-29T10:07:46;24.30;99.90
32201;DHT22;18701;45.588;5.288;2023-05-29T10:10:18;24.40;99.90
32201;DHT22;18701;45.588;5.288;2023-05-29T10:12:50;24.50;99.90
32201;DHT22;18701;45.588;5.288;2023-05-29T10:15:16;24.40;99.90
32201;DHT22;18701;45.588;5.288;2023-05-29T10:17:56;24.20;99.90
32201;DHT22;18701;45.588;5.288;2023-05-29T10:20:22;24.40;99.90
32201;DHT22;18701;45.588;5.288;2023-05-29T10:22:50;24.50;99.90
32201;DHT22;18701;45.588;5.288;2023-05-29T10:25:20;24.70;99.90
32201;DHT22;18701;45.588;5.288;2023-05-29T10:27:49;24.70;99.90
32201;DHT22;18701;45.588;5.288;2023-05-29T10:30:29;24.80;99.90
32201;DHT22;18701;45.588;5.288;2023-05-29T10:33:15;24.90;99.90
32201;DHT22;18701;45.588;5.288;2023-05-29T10:38:14;25.20;99.90
32201;DHT22;18701;45.588;5.288;2023-05-29T10:40:42;25.20;99.90
32201;DHT22;18701;45.588;5.288;2023-05-29T10:43:08;24.90;99.90
32201;DHT22;18701;45.588;5.288;2023-05-29T10:50:40;25.40;99.90
32201;DHT22;18701;45.588;5.288;2023-05-29T10:53:07;25.30;99.90
32201;DHT22;18701;45.588;5.288;2023-05-29T10:55:36;25.10;99.90
32201;DHT22;18701;45.588;5.288;2023-05-29T10:58:06;25.40;99.90
32201;DHT22;18701;45.588;5.288;2023-05-29T11:00:31;25.40;99.90
32201;DHT22;18701;45.588;5.288;2023-05-29T11:03:04;25.50;99.90
32201;DHT22;18701;45.588;5.288;2023-05-29T11:05:32;25.00;99.90
32201;DHT22;18701;45.588;5.288;2023-05-29T11:07:59;25.30;99.90
32201;DHT22;18701;45.588;5.288;2023-05-29T11:13:39;26.00;99.90
32201;DHT22;18701;45.588;5.288;2023-05-29T11:18:52;26.00;99.90
32201;DHT22;18701;45.588;5.288;2023-05-29T11:21:30;26.00;99.90
32201;DHT22;18701;45.588;5.288;2023-05-29T11:24:01;25.90;99.90
32201;DHT22;18701;45.588;5.288;2023-05-29T11:26:32;26.00;99.90
32201;DHT22;18701;45.588;5.288;2023-05-29T11:28:59;26.20;99.90
32201;DHT22;18701;45.588;5.288;2023-05-29T11:31:27;26.20;99.90
32201;DHT22;18701;45.588;5.288;2023-05-29T11:33:55;26.20;99.90
32201;DHT22;18701;45.588;5.288;2023-05-29T11:36:25;26.10;99.90
32201;DHT22;18701;45.588;5.288;2023-05-29T11:38:51;26.20;99.90
32201;DHT22;18701;45.588;5.288;2023-05-29T11:41:18;26.50;99.90
32201;DHT22;18701;45.588;5.288;2023-05-29T11:43:43;26.60;99.90
32201;DHT22;18701;45.588;5.288;2023-05-29T11:46:19;26.80;99.90
32201;DHT22;18701;45.588;5.288;2023-05-29T11:48:46;26.60;99.90
32201;DHT22;18701;45.588;5.288;2023-05-29T11:51:12;26.30;99.90
32201;DHT22;18701;45.588;5.288;2023-05-29T11:53:43;26.40;99.90
32201;DHT22;18701;45.588;5.288;2023-05-29T11:56:10;26.70;99.90
32201;DHT22;18701;45.588;5.288;2023-05-29T11:58:40;26.70;99.90
32201;DHT22;18701;45.588;5.288;2023-05-29T12:01:08;26.80;99.90
32201;DHT22;18701;45.588;5.288;2023-05-29T12:03:41;26.80;99.80
32201;DHT22;18701;45.588;5.288;2023-05-29T12:06:09;26.80;99.60
32201;DHT22;18701;45.588;5.288;2023-05-29T12:08:36;26.60;99.90
32201;DHT22;18701;45.588;5.288;2023-05-29T12:11:02;27.00;99.90
32201;DHT22;18701;45.588;5.288;2023-05-29T12:13:28;27.30;99.90
32201;DHT22;18701;45.588;5.288;2023-05-29T12:15:57;27.20;99.80
32201;DHT22;18701;45.588;5.288;2023-05-29T12:18:24;27.00;99.90
32201;DHT22;18701;45.588;5.288;2023-05-29T12:20:50;27.10;99.60
32201;DHT22;18701;45.588;5.288;2023-05-29T12:23:18;27.00;99.80
32201;DHT22;18701;45.588;5.288;2023-05-29T12:25:47;27.00;99.80
32201;DHT22;18701;45.588;5.288;2023-05-29T12:28:17;27.00;99.30
32201;DHT22;18701;45.588;5.288;2023-05-29T12:30:44;27.10;98.90
32201;DHT22;18701;45.588;5.288;2023-05-29T12:33:31;27.40;99.40
32201;DHT22;18701;45.588;5.288;2023-05-29T12:36:04;27.20;99.60
32201;DHT22;18701;45.588;5.288;2023-05-29T12:38:32;27.20;99.00
32201;DHT22;18701;45.588;5.288;2023-05-29T12:40:57;27.00;99.30
32201;DHT22;18701;45.588;5.288;2023-05-29T12:43:23;27.30;99.20
32201;DHT22;18701;45.588;5.288;2023-05-29T12:45:54;27.60;99.90
32201;DHT22;18701;45.588;5.288;2023-05-29T12:48:26;27.70;99.70
32201;DHT22;18701;45.588;5.288;2023-05-29T12:50:52;27.80;99.80
32201;DHT22;18701;45.588;5.288;2023-05-29T12:53:18;28.00;99.20
32201;DHT22;18701;45.588;5.288;2023-05-29T12:55:46;28.20;99.90
32201;DHT22;18701;45.588;5.288;2023-05-29T12:58:13;28.30;99.30
32201;DHT22;18701;45.588;5.288;2023-05-29T13:00:40;28.40;99.90
32201;DHT22;18701;45.588;5.288;2023-05-29T13:03:07;28.50;98.80
32201;DHT22;18701;45.588;5.288;2023-05-29T13:05:33;28.70;98.80
32201;DHT22;18701;45.588;5.288;2023-05-29T13:07:59;27.90;98.60
32201;DHT22;18701;45.588;5.288;2023-05-29T13:10:26;28.40;99.90
32201;DHT22;18701;45.588;5.288;2023-05-29T13:12:53;28.50;99.50
32201;DHT22;18701;45.588;5.288;2023-05-29T13:15:24;28.00;99.30
32201;DHT22;18701;45.588;5.288;2023-05-29T13:17:51;27.70;99.40
32201;DHT22;18701;45.588;5.288;2023-05-29T13:20:17;27.70;99.20
32201;DHT22;18701;45.588;5.288;2023-05-29T13:22:44;27.80;99.00
32201;DHT22;18701;45.588;5.288;2023-05-29T13:25:13;28.20;99.90
32201;DHT22;18701;45.588;5.288;2023-05-29T13:27:41;28.50;99.90
32201;DHT22;18701;45.588;5.288;2023-05-29T13:30:08;28.40;99.30
32201;DHT22;18701;45.588;5.288;2023-05-29T13:32:34;28.20;99.10
32201;DHT22;18701;45.588;5.288;2023-05-29T13:35:00;28.00;99.80
32201;DHT22;18701;45.588;5.288;2023-05-29T13:37:26;28.10;98.80
32201;DHT22;18701;45.588;5.288;2023-05-29T13:39:53;28.00;99.10
32201;DHT22;18701;45.588;5.288;2023-05-29T13:42:19;28.30;99.90
32201;DHT22;18701;45.588;5.288;2023-05-29T13:44:46;28.60;99.40
32201;DHT22;18701;45.588;5.288;2023-05-29T13:47:12;28.40;99.80
32201;DHT22;18701;45.588;5.288;2023-05-29T13:49:37;28.20;99.60
32201;DHT22;18701;45.588;5.288;2023-05-29T13:52:05;28.20;99.80
32201;DHT22;18701;45.588;5.288;2023-05-29T13:54:30;27.90;99.90
32201;DHT22;18701;45.588;5.288;2023-05-29T13:57:01;27.70;99.90
32201;DHT22;18701;45.588;5.288;2023-05-29T13:59:27;27.20;99.90
32201;DHT22;18701;45.588;5.288;2023-05-29T14:01:53;27.20;99.90
32201;DHT22;18701;45.588;5.288;2023-05-29T14:04:18;27.30;99.90
32201;DHT22;18701;45.588;5.288;2023-05-29T14:06:44;27.50;99.90
32201;DHT22;18701;45.588;5.288;2023-05-29T14:09:10;27.30;99.90
32201;DHT22;18701;45.588;5.288;2023-05-29T14:11:36;27.00;99.90
32201;DHT22;18701;45.588;5.288;2023-05-29T14:14:03;27.00;99.90
32201;DHT22;18701;45.588;5.288;2023-05-29T14:16:30;27.10;99.90
32201;DHT22;18701;45.588;5.288;2023-05-29T14:18:55;27.30;99.90
32201;DHT22;18701;45.588;5.288;2023-05-29T14:21:21;27.80;99.90
32201;DHT22;18701;45.588;5.288;2023-05-29T14:23:47;27.90;99.90
32201;DHT22;18701;45.588;5.288;2023-05-29T14:26:13;28.20;99.90
32201;DHT22;18701;45.588;5.288;2023-05-29T14:28:38;28.40;99.90
32201;DHT22;18701;45.588;5.288;2023-05-29T14:31:07;28.10;99.90
32201;DHT22;18701;45.588;5.288;2023-05-29T14:33:32;28.00;99.50
32201;DHT22;18701;45.588;5.288;2023-05-29T14:35:58;28.30;99.90
32201;DHT22;18701;45.588;5.288;2023-05-29T14:38:24;28.20;99.50
32201;DHT22;18701;45.588;5.288;2023-05-29T14:40:51;28.20;99.40
32201;DHT22;18701;45.588;5.288;2023-05-29T14:43:17;27.90;99.40
32201;DHT22;18701;45.588;5.288;2023-05-29T14:45:42;28.10;99.10
32201;DHT22;18701;45.588;5.288;2023-05-29T14:48:08;27.80;99.20
32201;DHT22;18701;45.588;5.288;2023-05-29T14:50:35;28.00;99.40
32201;DHT22;18701;45.588;5.288;2023-05-29T14:53:00;27.90;99.50
32201;DHT22;18701;45.588;5.288;2023-05-29T14:55:26;28.10;99.90
32201;DHT22;18701;45.588;5.288;2023-05-29T14:57:52;28.20;99.90
32201;DHT22;18701;45.588;5.288;2023-05-29T15:00:17;28.40;99.90
32201;DHT22;18701;45.588;5.288;2023-05-29T15:02:44;28.30;99.80
32201;DHT22;18701;45.588;5.288;2023-05-29T15:05:09;28.30;98.90
32201;DHT22;18701;45.588;5.288;2023-05-29T15:07:35;28.00;99.10
32201;DHT22;18701;45.588;5.288;2023-05-29T15:10:01;28.20;99.90
32201;DHT22;18701;45.588;5.288;2023-05-29T15:12:27;28.50;99.60
32201;DHT22;18701;45.588;5.288;2023-05-29T15:14:52;28.60;99.30
32201;DHT22;18701;45.588;5.288;2023-05-29T15:17:18;28.00;98.80
32201;DHT22;18701;45.588;5.288;2023-05-29T15:19:44;27.90;99.20
32201;DHT22;18701;45.588;5.288;2023-05-29T15:22:09;28.00;99.20
32201;DHT22;18701;45.588;5.288;2023-05-29T15:24:35;27.80;99.10
32201;DHT22;18701;45.588;5.288;2023-05-29T15:27:01;28.10;99.10
32201;DHT22;18701;45.588;5.288;2023-05-29T15:29:33;28.30;98.50
32201;DHT22;18701;45.588;5.288;2023-05-29T15:31:59;28.00;99.10
32201;DHT22;18701;45.588;5.288;2023-05-29T15:34:25;28.10;99.20
32201;DHT22;18701;45.588;5.288;2023-05-29T15:36:51;27.90;99.40
32201;DHT22;18701;45.588;5.288;2023-05-29T15:39:16;27.60;99.70
32201;DHT22;18701;45.588;5.288;2023-05-29T15:41:42;27.70;99.40
32201;DHT22;18701;45.588;5.288;2023-05-29T15:44:08;27.50;99.70
32201;DHT22;18701;45.588;5.288;2023-05-29T15:46:33;27.60;99.60
32201;DHT22;18701;45.588;5.288;2023-05-29T15:48:59;27.60;99.60